Time;durP1;ratioP1;P1;durP2;ratioP2;P2;SDS_P1;SDS_P2;PMS_P1;PMS_P2;Temp;Humidity;BMP_temperature;BMP_pressure;BME280_temperature;BME280_humidity;BME280_pressure;Samples;Min_cycle;Max_cycle;Signal;HPM_P1;HPM_P2
2022/03/13 00:00:17;;;;;;;11.77;8.50;;;6.60;1.00;;;;;;5073373;28;20518;-59
2022/03/13 00:02:45;;;;;;;11.38;8.10;;;6.70;1.00;;;;;;5073205;28;20945;-59
2022/03/13 00:05:16;;;;;;;12.05;8.30;;;6.70;1.00;;;;;;5057988;28;20586;-56
2022/03/13 00:07:43;;;;;;;12.40;7.72;;;6.80;1.00;;;;;;5055100;28;20421;-56
2022/03/13 00:10:11;;;;;;;10.80;7.45;;;6.80;1.00;;;;;;5054381;28;20472;-58
2022/03/13 00:12:39;;;;;;;12.32;7.90;;;6.70;1.00;;;;;;5053046;28;20931;-58
2022/03/13 00:15:09;;;;;;;10.90;7.63;;;6.50;1.00;;;;;;5053902;28;20558;-58
2022/03/13 00:17:36;;;;;;;11.98;7.65;;;6.50;1.00;;;;;;5054172;28;20849;-57
2022/03/13 00:20:07;;;;;;;11.10;7.78;;;6.40;1.00;;;;;;5054821;28;20521;-57
2022/03/13 00:22:36;;;;;;;11.07;7.47;;;6.50;1.00;;;;;;5060086;28;20431;-58
2022/03/13 00:25:08;;;;;;;10.63;7.47;;;6.60;1.00;;;;;;5073079;28;20788;-58
2022/03/13 00:27:36;;;;;;;13.50;8.05;;;6.60;1.00;;;;;;5072684;28;20436;-57
2022/03/13 00:30:05;;;;;;;10.88;7.75;;;6.50;1.00;;;;;;5074568;28;20494;-57
2022/03/13 00:32:32;;;;;;;13.05;8.52;;;6.40;1.00;;;;;;5057584;28;20439;-58
2022/03/13 00:34:59;;;;;;;12.32;8.30;;;6.30;1.00;;;;;;5055116;28;20816;-57
2022/03/13 00:37:26;;;;;;;12.65;7.72;;;6.30;1.00;;;;;;5054516;28;20433;-58
2022/03/13 00:39:54;;;;;;;11.97;7.10;;;6.10;1.00;;;;;;5054670;28;20558;-58
2022/03/13 00:42:22;;;;;;;10.40;7.10;;;6.20;1.00;;;;;;5053450;28;20433;-57
2022/03/13 00:44:50;;;;;;;12.50;7.35;;;6.20;1.00;;;;;;5054454;28;20428;-59
2022/03/13 00:47:18;;;;;;;11.88;7.70;;;6.30;1.00;;;;;;5053943;28;20884;-58
2022/03/13 00:49:45;;;;;;;10.20;6.60;;;6.30;1.00;;;;;;5053887;28;20436;-57
2022/03/13 00:52:12;;;;;;;9.60;7.47;;;6.30;1.00;;;;;;5053347;28;20461;-57
2022/03/13 00:54:39;;;;;;;10.80;7.13;;;6.10;1.00;;;;;;5054868;28;20433;-58
2022/03/13 00:57:06;;;;;;;10.77;7.22;;;6.10;1.00;;;;;;5053618;28;20834;-58
2022/03/13 00:59:34;;;;;;;9.90;6.60;;;6.10;1.00;;;;;;5052823;28;20475;-58
2022/03/13 01:02:02;;;;;;;11.15;6.50;;;6.00;1.00;;;;;;5052986;28;20507;-58
2022/03/13 01:04:29;;;;;;;10.35;7.03;;;6.10;1.00;;;;;;5053738;28;20417;-58
2022/03/13 01:06:56;;;;;;;12.38;7.40;;;6.00;1.00;;;;;;5051632;28;20430;-56
2022/03/13 01:09:23;;;;;;;11.20;7.47;;;5.90;1.00;;;;;;5053215;28;20486;-57
2022/03/13 01:11:50;;;;;;;11.40;8.20;;;5.90;1.00;;;;;;5052811;28;20907;-57
2022/03/13 01:14:19;;;;;;;10.18;7.30;;;5.80;1.00;;;;;;5054731;28;20437;-58
2022/03/13 01:16:46;;;;;;;10.88;8.50;;;5.80;1.00;;;;;;5061772;28;20897;-57
2022/03/13 01:19:14;;;;;;;12.13;7.10;;;5.80;1.00;;;;;;5074822;28;20498;-57
2022/03/13 01:21:43;;;;;;;10.38;7.10;;;5.90;1.00;;;;;;5072932;28;20928;-57
2022/03/13 01:24:24;;;;;;;11.67;7.10;;;6.00;1.00;;;;;;5074659;28;20419;-56
2022/03/13 01:26:57;;;;;;;12.52;8.10;;;5.90;1.00;;;;;;5054388;28;20475;-58
2022/03/13 01:29:24;;;;;;;10.30;6.55;;;5.90;1.00;;;;;;5053440;28;20421;-56
2022/03/13 01:31:51;;;;;;;9.90;6.90;;;5.80;1.00;;;;;;5052539;28;20478;-58
2022/03/13 01:34:41;;;;;;;8.35;6.00;;;5.80;1.00;;;;;;5053545;28;20433;-57
2022/03/13 01:37:12;;;;;;;10.20;6.32;;;5.80;1.00;;;;;;5056572;28;20856;-57
2022/03/13 01:39:39;;;;;;;11.60;7.72;;;6.00;1.00;;;;;;5057305;28;20788;-57
2022/03/13 01:42:07;;;;;;;9.33;6.80;;;5.90;1.00;;;;;;5057007;28;20736;-57
2022/03/13 01:44:35;;;;;;;9.65;6.80;;;5.90;1.00;;;;;;5058029;28;20452;-57
2022/03/13 01:47:03;;;;;;;12.43;8.10;;;5.80;1.00;;;;;;5039170;28;20520;-58
2022/03/13 01:49:32;;;;;;;10.18;6.80;;;5.80;1.00;;;;;;5057705;28;20494;-57
2022/03/13 01:52:01;;;;;;;13.13;7.55;;;5.70;1.00;;;;;;5037295;28;20433;-57
2022/03/13 01:54:30;;;;;;;11.18;7.75;;;5.70;1.00;;;;;;5068936;28;20431;-57
2022/03/13 01:56:57;;;;;;;8.10;5.80;;;5.60;1.00;;;;;;5077404;28;20471;-57
2022/03/13 01:59:24;;;;;;;12.05;7.90;;;5.60;1.00;;;;;;5078227;28;20509;-57
2022/03/13 02:01:51;;;;;;;10.88;7.07;;;5.50;1.00;;;;;;5077133;28;20515;-57
2022/03/13 02:04:26;;;;;;;10.80;6.80;;;5.50;1.00;;;;;;5077671;28;20469;-57
2022/03/13 02:06:58;;;;;;;10.40;6.15;;;5.50;1.00;;;;;;5076997;28;20437;-56
2022/03/13 02:09:26;;;;;;;10.02;6.60;;;5.50;1.00;;;;;;5076303;28;20522;-57
2022/03/13 02:11:53;;;;;;;9.18;5.82;;;5.50;1.00;;;;;;5067489;28;20864;-58
2022/03/13 02:14:22;;;;;;;9.10;6.20;;;5.50;1.00;;;;;;5056379;28;20434;-58
2022/03/13 02:16:50;;;;;;;9.70;6.03;;;5.50;1.00;;;;;;5055135;28;20468;-57
2022/03/13 02:19:18;;;;;;;10.15;6.93;;;5.50;1.00;;;;;;5056680;28;20487;-58
2022/03/13 02:21:51;;;;;;;11.20;7.57;;;5.40;1.00;;;;;;5055197;28;20441;-57
2022/03/13 02:24:24;;;;;;;8.60;6.00;;;5.40;1.00;;;;;;5057157;28;20418;-56
2022/03/13 02:27:03;;;;;;;11.82;6.95;;;5.40;1.00;;;;;;5055594;28;20431;-56
2022/03/13 02:29:31;;;;;;;15.40;7.25;;;5.40;1.00;;;;;;5056124;28;20528;-59
2022/03/13 02:32:00;;;;;;;10.77;6.50;;;5.30;1.00;;;;;;5055476;28;20433;-57
2022/03/13 02:34:27;;;;;;;9.77;5.65;;;5.40;1.00;;;;;;5056728;28;20437;-57
2022/03/13 02:37:00;;;;;;;10.97;6.50;;;5.30;1.00;;;;;;5056247;28;20543;-58
2022/03/13 02:39:36;;;;;;;10.25;6.32;;;5.40;1.00;;;;;;5057422;28;20483;-56
2022/03/13 02:42:05;;;;;;;9.30;6.60;;;5.30;1.00;;;;;;5055796;28;20919;-57
2022/03/13 02:44:32;;;;;;;10.50;6.30;;;5.20;1.00;;;;;;5057028;28;20456;-56
2022/03/13 02:47:02;;;;;;;10.20;6.53;;;5.20;1.00;;;;;;5055179;28;20844;-56
2022/03/13 02:49:31;;;;;;;9.77;6.22;;;5.30;1.00;;;;;;5055526;28;20932;-58
2022/03/13 02:52:01;;;;;;;8.70;6.00;;;5.20;1.00;;;;;;5056218;28;20521;-58
2022/03/13 02:54:30;;;;;;;7.63;4.63;;;5.20;1.00;;;;;;5056794;28;20483;-58
2022/03/13 02:56:58;;;;;;;10.35;7.05;;;5.10;1.00;;;;;;5054972;28;20811;-57
2022/03/13 02:59:25;;;;;;;7.93;6.43;;;5.10;1.00;;;;;;5055876;28;20729;-58
2022/03/13 03:01:53;;;;;;;9.20;5.40;;;5.20;1.00;;;;;;5054568;28;20797;-54
2022/03/13 03:04:24;;;;;;;12.63;6.60;;;5.20;1.00;;;;;;5056383;28;20465;-57
2022/03/13 03:07:01;;;;;;;10.23;6.50;;;5.10;1.00;;;;;;5069199;28;20439;-58
2022/03/13 03:09:31;;;;;;;9.95;5.97;;;5.10;1.00;;;;;;5075353;28;20455;-56
2022/03/13 03:12:00;;;;;;;8.18;5.65;;;5.10;1.00;;;;;;5075444;28;20435;-55
2022/03/13 03:14:30;;;;;;;8.73;5.85;;;5.10;1.00;;;;;;5073497;28;20738;-57
2022/03/13 03:16:57;;;;;;;6.75;5.43;;;5.10;1.00;;;;;;5055837;28;20836;-57
2022/03/13 03:19:24;;;;;;;8.73;5.25;;;5.10;1.00;;;;;;5056011;28;20500;-58
2022/03/13 03:21:52;;;;;;;7.40;4.90;;;5.10;1.00;;;;;;5055708;28;20464;-56
2022/03/13 03:24:21;;;;;;;9.60;5.78;;;5.00;1.00;;;;;;5055154;28;20432;-56
2022/03/13 03:26:49;;;;;;;8.07;5.80;;;5.20;1.00;;;;;;5054584;28;20825;-55
2022/03/13 03:29:18;;;;;;;8.10;5.45;;;5.30;1.00;;;;;;5056103;28;20521;-56
2022/03/13 03:31:48;;;;;;;8.90;6.20;;;5.30;1.00;;;;;;5054526;28;20461;-56
2022/03/13 03:34:19;;;;;;;8.70;5.90;;;5.20;1.00;;;;;;5055594;28;20477;-57
2022/03/13 03:36:51;;;;;;;12.25;6.80;;;5.10;1.00;;;;;;5054257;28;20468;-56
2022/03/13 03:39:20;;;;;;;7.55;5.35;;;4.80;1.00;;;;;;5055920;28;20428;-56
2022/03/13 03:41:50;;;;;;;10.55;5.80;;;4.80;1.00;;;;;;5054777;28;20463;-56
2022/03/13 03:44:17;;;;;;;10.03;6.50;;;4.90;1.00;;;;;;5037755;28;20452;-55
2022/03/13 03:46:46;;;;;;;9.48;5.97;;;4.90;1.00;;;;;;5037537;28;20429;-57
2022/03/13 03:49:13;;;;;;;10.63;6.10;;;4.90;1.00;;;;;;5055370;28;20529;-57
2022/03/13 03:51:40;;;;;;;9.32;5.78;;;5.00;1.00;;;;;;5053337;28;20472;-57
2022/03/13 03:54:08;;;;;;;7.82;5.72;;;5.10;1.00;;;;;;5054616;28;20417;-57
2022/03/13 03:56:36;;;;;;;10.98;6.45;;;5.20;1.00;;;;;;5053436;28;20849;-57
2022/03/13 03:59:05;;;;;;;9.68;6.03;;;5.30;1.00;;;;;;5055697;28;20977;-57
2022/03/13 04:01:37;;;;;;;8.15;5.65;;;5.20;1.00;;;;;;5054937;28;20555;-57
2022/03/13 04:04:06;;;;;;;10.18;6.63;;;5.30;1.00;;;;;;5056121;28;20833;-57
2022/03/13 04:06:33;;;;;;;10.68;6.65;;;5.20;1.00;;;;;;5054577;28;20437;-56
2022/03/13 04:09:00;;;;;;;8.88;5.93;;;5.10;1.00;;;;;;5055938;28;20506;-57
2022/03/13 04:11:27;;;;;;;9.00;6.00;;;5.10;1.00;;;;;;5071229;28;20509;-57
2022/03/13 04:13:55;;;;;;;11.88;6.80;;;5.00;1.00;;;;;;5057396;28;20723;-57
2022/03/13 04:16:23;;;;;;;11.27;6.15;;;5.10;1.00;;;;;;5056967;28;20501;-57
2022/03/13 04:18:50;;;;;;;11.20;6.67;;;5.10;1.00;;;;;;5070679;28;20425;-57
2022/03/13 04:21:17;;;;;;;13.77;7.63;;;5.10;1.00;;;;;;5054025;28;20502;-56
2022/03/13 04:23:44;;;;;;;10.55;7.07;;;5.00;1.00;;;;;;5037306;28;20787;-56
2022/03/13 04:26:11;;;;;;;12.18;7.05;;;4.90;1.00;;;;;;5052955;28;20786;-56
2022/03/13 04:28:38;;;;;;;9.82;5.80;;;4.70;1.00;;;;;;5054993;28;20947;-57
2022/03/13 04:31:08;;;;;;;11.70;7.50;;;4.70;1.00;;;;;;5053998;28;20422;-56
2022/03/13 04:33:37;;;;;;;10.77;7.13;;;4.70;1.00;;;;;;5055265;28;20456;-56
2022/03/13 04:36:10;;;;;;;9.10;6.13;;;4.70;1.00;;;;;;5054540;28;20847;-57
2022/03/13 04:38:37;;;;;;;10.57;6.72;;;4.70;1.00;;;;;;5055410;28;20429;-57
2022/03/13 04:41:04;;;;;;;9.73;6.50;;;4.80;1.00;;;;;;5053868;28;20425;-57
2022/03/13 04:43:31;;;;;;;12.25;8.25;;;4.80;1.00;;;;;;5055108;28;20413;-57
2022/03/13 04:45:58;;;;;;;11.70;6.85;;;4.80;1.00;;;;;;5053086;28;20433;-56
2022/03/13 04:48:25;;;;;;;10.65;7.03;;;4.90;1.00;;;;;;5053677;28;20453;-56
2022/03/13 04:50:53;;;;;;;10.95;5.72;;;5.00;1.00;;;;;;5052788;28;20508;-57
2022/03/13 04:53:20;;;;;;;11.07;6.18;;;4.90;1.00;;;;;;5053449;28;20464;-57
2022/03/13 04:55:47;;;;;;;9.70;6.18;;;5.00;1.00;;;;;;5053713;28;20520;-55
2022/03/13 04:58:14;;;;;;;10.23;6.00;;;5.00;1.00;;;;;;5052671;28;20722;-56
2022/03/13 05:00:41;;;;;;;9.88;6.63;;;5.00;1.00;;;;;;5053542;28;20437;-54
2022/03/13 05:03:10;;;;;;;9.52;6.60;;;5.00;1.00;;;;;;5053741;28;20437;-56
2022/03/13 05:05:36;;;;;;;9.77;6.77;;;5.00;1.00;;;;;;5054322;28;20429;-56
2022/03/13 05:08:06;;;;;;;11.25;7.22;;;4.90;1.00;;;;;;5053700;28;20532;-56
2022/03/13 05:10:38;;;;;;;8.45;6.45;;;4.90;1.00;;;;;;5054172;28;20499;-56
2022/03/13 05:13:07;;;;;;;10.20;6.67;;;5.00;1.00;;;;;;5053863;28;20837;-57
2022/03/13 05:15:36;;;;;;;10.63;7.28;;;5.00;1.00;;;;;;5061149;28;20855;-57
2022/03/13 05:18:03;;;;;;;11.18;6.70;;;5.00;1.00;;;;;;5073152;28;20422;-57
2022/03/13 05:20:31;;;;;;;9.80;6.77;;;5.00;1.00;;;;;;5073197;28;20416;-57
2022/03/13 05:22:58;;;;;;;9.43;6.53;;;4.90;1.00;;;;;;5071751;28;20423;-56
2022/03/13 05:25:27;;;;;;;10.35;7.28;;;4.90;1.00;;;;;;5058830;28;20436;-56
2022/03/13 05:27:55;;;;;;;12.55;7.40;;;4.80;1.00;;;;;;5052449;28;20492;-56
2022/03/13 05:30:22;;;;;;;12.00;6.80;;;4.80;1.00;;;;;;5052719;28;20444;-56
2022/03/13 05:32:49;;;;;;;12.98;7.40;;;4.70;1.00;;;;;;5052636;28;20895;-57
2022/03/13 05:35:16;;;;;;;12.27;6.63;;;4.70;1.00;;;;;;5074186;28;20435;-58
2022/03/13 05:37:43;;;;;;;11.82;7.22;;;4.70;1.00;;;;;;5074306;28;20427;-57
2022/03/13 05:40:13;;;;;;;10.75;6.72;;;4.70;1.00;;;;;;5073014;28;20544;-57
2022/03/13 05:42:43;;;;;;;12.27;6.70;;;4.80;1.00;;;;;;5066246;28;20496;-56
2022/03/13 05:45:11;;;;;;;10.37;6.87;;;4.90;1.00;;;;;;5053669;28;20783;-56
2022/03/13 05:47:44;;;;;;;11.77;7.70;;;4.90;1.00;;;;;;5054590;28;20425;-58
2022/03/13 05:50:11;;;;;;;13.03;7.90;;;4.90;1.00;;;;;;5052233;28;20433;-56
2022/03/13 05:52:38;;;;;;;11.40;7.30;;;4.90;1.00;;;;;;5052264;28;20468;-56
2022/03/13 05:55:06;;;;;;;11.10;6.30;;;4.80;1.00;;;;;;5052793;28;20857;-59
2022/03/13 05:57:34;;;;;;;11.80;7.78;;;4.80;1.00;;;;;;5052814;28;20916;-57
2022/03/13 06:00:02;;;;;;;10.68;6.15;;;4.80;1.00;;;;;;5052164;28;20429;-57
2022/03/13 06:02:29;;;;;;;10.75;7.53;;;4.80;1.00;;;;;;5052818;28;20831;-56
2022/03/13 06:04:56;;;;;;;11.63;7.28;;;4.90;1.00;;;;;;5051876;28;20651;-58
2022/03/13 06:07:23;;;;;;;13.52;7.10;;;4.90;1.00;;;;;;5052837;28;20896;-57
2022/03/13 06:09:52;;;;;;;10.48;6.72;;;4.90;1.00;;;;;;5051564;28;20439;-57
2022/03/13 06:12:19;;;;;;;10.00;7.15;;;4.80;1.00;;;;;;5053199;28;20413;-58
2022/03/13 06:14:46;;;;;;;10.23;7.35;;;4.80;1.00;;;;;;5052081;28;20433;-57
2022/03/13 06:17:14;;;;;;;10.93;7.67;;;4.80;1.00;;;;;;5052711;28;20417;-57
2022/03/13 06:19:42;;;;;;;10.45;7.90;;;4.90;1.00;;;;;;5052363;28;20457;-57
2022/03/13 06:22:10;;;;;;;12.57;7.43;;;5.00;1.00;;;;;;5054042;28;20486;-57
2022/03/13 06:24:37;;;;;;;10.25;7.32;;;5.00;1.00;;;;;;5056516;28;20428;-57
2022/03/13 06:27:05;;;;;;;10.35;7.60;;;5.20;1.00;;;;;;5057330;28;20785;-57
2022/03/13 06:29:32;;;;;;;11.65;7.95;;;5.20;1.00;;;;;;5056408;28;20435;-54
2022/03/13 06:31:59;;;;;;;9.52;7.55;;;5.30;1.00;;;;;;5057442;28;20440;-56
2022/03/13 06:34:28;;;;;;;10.00;6.40;;;5.40;1.00;;;;;;5056193;28;20429;-57
2022/03/13 06:36:54;;;;;;;11.55;7.47;;;5.50;1.00;;;;;;5057314;28;20900;-57
2022/03/13 06:39:21;;;;;;;12.23;7.50;;;5.40;1.00;;;;;;5056396;28;20535;-56
2022/03/13 06:41:48;;;;;;;14.75;7.95;;;5.40;1.00;;;;;;5056629;28;20421;-57
2022/03/13 06:44:16;;;;;;;16.77;7.82;;;5.60;1.00;;;;;;5055993;28;20488;-53
2022/03/13 06:46:42;;;;;;;9.73;6.95;;;5.60;1.00;;;;;;5056695;28;20425;-56
2022/03/13 06:49:09;;;;;;;12.75;7.40;;;5.70;1.00;;;;;;5056114;28;20437;-57
2022/03/13 06:51:38;;;;;;;9.00;7.00;;;5.60;1.00;;;;;;5057146;28;20421;-58
2022/03/13 06:54:06;;;;;;;10.05;7.65;;;5.40;1.00;;;;;;5056351;28;20429;-57
2022/03/13 06:56:33;;;;;;;11.13;7.30;;;5.40;1.00;;;;;;5056563;28;20433;-57
2022/03/13 06:59:03;;;;;;;11.13;8.23;;;5.40;1.00;;;;;;5056035;28;20429;-56
2022/03/13 07:01:30;;;;;;;11.55;8.68;;;5.30;1.00;;;;;;5056213;28;20748;-57
2022/03/13 07:03:56;;;;;;;14.38;8.90;;;5.00;1.00;;;;;;5055055;28;20440;-57
2022/03/13 07:06:23;;;;;;;11.60;7.80;;;4.80;1.00;;;;;;5055867;28;20849;-57
2022/03/13 07:08:52;;;;;;;12.35;8.27;;;4.80;1.00;;;;;;5054661;28;20484;-53
2022/03/13 07:11:19;;;;;;;12.27;8.50;;;4.70;1.00;;;;;;5056051;28;20433;-57
2022/03/13 07:13:46;;;;;;;11.15;7.63;;;4.80;1.00;;;;;;5055287;28;20437;-57
2022/03/13 07:16:16;;;;;;;11.40;7.85;;;5.00;1.00;;;;;;5055891;28;20433;-56
2022/03/13 07:18:43;;;;;;;10.95;6.93;;;5.20;1.00;;;;;;5055071;28;20480;-57
2022/03/13 07:21:10;;;;;;;11.77;6.78;;;5.40;1.00;;;;;;5056139;28;20511;-59
2022/03/13 07:23:38;;;;;;;14.63;8.68;;;5.60;1.00;;;;;;5055278;28;20425;-58
2022/03/13 07:26:07;;;;;;;12.80;8.85;;;5.60;1.00;;;;;;5055136;28;20507;-58
2022/03/13 07:28:34;;;;;;;11.27;8.43;;;5.60;1.00;;;;;;5055221;28;20812;-58
2022/03/13 07:31:01;;;;;;;17.27;10.80;;;5.70;1.00;;;;;;5056060;28;20778;-58
2022/03/13 07:33:27;;;;;;;16.30;10.10;;;5.90;1.00;;;;;;5054969;28;20472;-55
2022/03/13 07:35:55;;;;;;;13.65;9.43;;;5.90;1.00;;;;;;5055678;28;20589;-56
2022/03/13 07:38:22;;;;;;;12.52;9.18;;;5.80;1.00;;;;;;5054351;28;20845;-55
2022/03/13 07:40:49;;;;;;;13.25;8.23;;;5.70;1.00;;;;;;5052306;28;20540;-55
2022/03/13 07:43:18;;;;;;;13.23;8.75;;;5.70;1.00;;;;;;5054136;28;20500;-57
2022/03/13 07:45:49;;;;;;;11.70;8.15;;;5.80;1.00;;;;;;5054907;28;20713;-57
2022/03/13 07:48:16;;;;;;;12.40;9.27;;;5.80;1.00;;;;;;5053981;28;20518;-57
2022/03/13 07:50:43;;;;;;;14.43;8.60;;;5.90;1.00;;;;;;5052991;28;20520;-57
2022/03/13 07:53:10;;;;;;;12.73;8.88;;;6.10;1.00;;;;;;5052619;28;20469;-56
2022/03/13 07:55:37;;;;;;;12.20;8.27;;;6.20;1.00;;;;;;5055347;28;20530;-57
2022/03/13 07:58:04;;;;;;;13.57;8.50;;;6.30;1.00;;;;;;5053936;28;20428;-58
2022/03/13 08:00:32;;;;;;;12.00;7.82;;;6.30;1.00;;;;;;5053414;28;20926;-58
2022/03/13 08:02:59;;;;;;;13.10;8.60;;;6.30;1.00;;;;;;5053286;28;20795;-58
2022/03/13 08:05:26;;;;;;;10.50;8.25;;;6.40;1.00;;;;;;5055598;28;20452;-58
2022/03/13 08:07:54;;;;;;;11.88;7.80;;;6.50;1.00;;;;;;5053978;28;20486;-58
2022/03/13 08:10:23;;;;;;;10.63;7.68;;;6.60;1.00;;;;;;5054889;28;20433;-57
2022/03/13 08:12:51;;;;;;;11.38;8.25;;;6.70;1.00;;;;;;5054177;28;20468;-56
2022/03/13 08:15:20;;;;;;;13.63;8.38;;;6.80;1.00;;;;;;5055531;28;20432;-56
2022/03/13 08:17:48;;;;;;;10.90;8.40;;;6.90;1.00;;;;;;5071711;28;20469;-57
2022/03/13 08:20:15;;;;;;;11.68;8.45;;;6.80;1.00;;;;;;5074188;28;20521;-57
2022/03/13 08:22:42;;;;;;;14.10;8.20;;;6.90;1.00;;;;;;5074694;28;20430;-58
2022/03/13 08:25:10;;;;;;;11.85;7.90;;;6.90;1.00;;;;;;5069796;28;20780;-57
2022/03/13 08:27:37;;;;;;;9.50;6.80;;;7.00;1.00;;;;;;5054076;28;20432;-57
2022/03/13 08:30:07;;;;;;;10.00;7.50;;;7.10;1.00;;;;;;5053298;28;20509;-57
2022/03/13 08:32:35;;;;;;;8.60;7.70;;;7.20;1.00;;;;;;5054687;28;20425;-57
2022/03/13 08:35:03;;;;;;;12.20;7.32;;;7.30;1.00;;;;;;5054504;28;20417;-58
2022/03/13 08:37:33;;;;;;;12.30;8.05;;;7.40;1.00;;;;;;5074048;28;20427;-56
2022/03/13 08:39:59;;;;;;;13.60;8.95;;;7.50;1.00;;;;;;5073994;28;20858;-58
2022/03/13 08:42:26;;;;;;;10.90;7.05;;;7.70;1.00;;;;;;5074653;28;20502;-57
2022/03/13 08:44:53;;;;;;;10.60;7.25;;;7.90;1.00;;;;;;5065293;28;20507;-56
2022/03/13 08:47:20;;;;;;;11.13;7.68;;;8.10;1.00;;;;;;5054099;28;20492;-56
2022/03/13 08:49:47;;;;;;;10.37;7.90;;;8.10;1.00;;;;;;5054944;28;20615;-57
2022/03/13 08:52:15;;;;;;;11.68;8.15;;;8.30;1.00;;;;;;5052672;28;20510;-58
2022/03/13 08:54:42;;;;;;;11.55;8.20;;;8.40;1.00;;;;;;5053769;28;20888;-57
2022/03/13 08:57:09;;;;;;;12.45;7.63;;;8.50;1.00;;;;;;5052284;28;20476;-57
2022/03/13 08:59:37;;;;;;;11.83;8.50;;;8.60;1.00;;;;;;5054436;28;20519;-59
2022/03/13 09:02:06;;;;;;;11.30;8.30;;;8.60;1.00;;;;;;5053426;28;20813;-58
2022/03/13 09:04:33;;;;;;;10.43;7.18;;;8.70;1.00;;;;;;5054063;28;20425;-58
2022/03/13 09:07:00;;;;;;;12.63;7.32;;;8.90;1.00;;;;;;5053315;28;20911;-58
2022/03/13 09:09:28;;;;;;;10.73;7.65;;;9.10;1.00;;;;;;5054284;28;20896;-58
2022/03/13 09:11:56;;;;;;;10.30;6.90;;;9.20;1.00;;;;;;5053626;28;20900;-59
2022/03/13 09:14:23;;;;;;;10.35;7.65;;;9.20;1.00;;;;;;5053071;28;20506;-59
2022/03/13 09:16:50;;;;;;;11.23;7.60;;;9.40;1.00;;;;;;5052082;28;20445;-58
2022/03/13 09:19:17;;;;;;;8.77;7.20;;;9.50;1.00;;;;;;5052280;28;20779;-59
2022/03/13 09:21:44;;;;;;;11.77;7.50;;;9.70;1.00;;;;;;5051476;28;21013;-58
2022/03/13 09:24:12;;;;;;;9.75;7.85;;;9.70;1.00;;;;;;5051980;28;20512;-59
2022/03/13 09:26:40;;;;;;;11.02;7.40;;;9.90;1.00;;;;;;5050546;28;20523;-59
2022/03/13 09:29:07;;;;;;;10.38;7.10;;;10.10;1.00;;;;;;5064687;28;20522;-58
2022/03/13 09:31:35;;;;;;;13.00;8.43;;;10.30;1.00;;;;;;5061274;28;20455;-59
2022/03/13 09:34:02;;;;;;;11.27;7.45;;;10.40;1.00;;;;;;5071699;28;20422;-58
2022/03/13 09:36:29;;;;;;;9.20;7.40;;;10.60;1.00;;;;;;5071372;28;20538;-59
2022/03/13 09:38:56;;;;;;;11.18;7.80;;;10.60;1.00;;;;;;5066276;28;20460;-59
2022/03/13 09:41:23;;;;;;;10.63;8.30;;;10.60;1.00;;;;;;5050670;28;20473;-59
2022/03/13 09:43:52;;;;;;;10.80;7.50;;;10.60;1.00;;;;;;5052305;28;20444;-59
2022/03/13 09:46:19;;;;;;;13.68;8.77;;;10.70;1.00;;;;;;5050675;28;20432;-57
2022/03/13 09:48:46;;;;;;;14.20;8.73;;;11.00;1.00;;;;;;5066948;28;20877;-57
2022/03/13 09:51:13;;;;;;;11.90;8.75;;;11.10;1.00;;;;;;5070345;28;20435;-59
2022/03/13 09:53:40;;;;;;;11.20;7.32;;;11.30;1.00;;;;;;5071805;28;21116;-59
2022/03/13 09:56:07;;;;;;;11.18;8.27;;;11.40;1.00;;;;;;5069773;28;20918;-58
2022/03/13 09:58:35;;;;;;;11.05;8.02;;;11.60;1.00;;;;;;5068824;28;20427;-59
2022/03/13 10:01:03;;;;;;;12.80;8.88;;;11.70;1.00;;;;;;5073991;28;20517;-60
2022/03/13 10:03:30;;;;;;;14.85;8.93;;;11.70;1.00;;;;;;5075550;28;20518;-59
2022/03/13 10:05:59;;;;;;;19.40;13.77;;;11.90;1.00;;;;;;5068411;28;20475;-58
2022/03/13 10:08:29;;;;;;;10.82;7.30;;;12.00;1.00;;;;;;5066115;28;20793;-59
2022/03/13 10:10:57;;;;;;;10.80;8.68;;;12.20;1.00;;;;;;5073699;28;20469;-59
2022/03/13 10:13:36;;;;;;;12.85;8.32;;;12.30;1.00;;;;;;5075131;28;20945;-59
2022/03/13 10:16:06;;;;;;;14.10;8.18;;;12.40;1.00;;;;;;5064369;28;21011;-60
2022/03/13 10:18:33;;;;;;;10.60;7.20;;;12.50;1.00;;;;;;5076353;28;20423;-59
2022/03/13 10:21:08;;;;;;;10.82;8.30;;;12.70;1.00;;;;;;5073828;28;20431;-58
2022/03/13 10:23:36;;;;;;;11.20;8.60;;;13.10;1.00;;;;;;5074391;28;20854;-58
2022/03/13 10:26:04;;;;;;;10.48;7.20;;;13.40;1.00;;;;;;5071762;28;20551;-59
2022/03/13 10:28:33;;;;;;;11.70;8.70;;;13.60;1.00;;;;;;5073248;28;20522;-58
2022/03/13 10:31:16;;;;;;;13.80;8.80;;;13.80;1.00;;;;;;5073879;28;20534;-60
2022/03/13 10:34:00;;;;;;;10.68;7.70;;;13.80;1.00;;;;;;5074601;28;20719;-59
2022/03/13 10:36:34;;;;;;;13.43;8.90;;;14.00;1.00;;;;;;5062104;28;20437;-58
2022/03/13 10:39:03;;;;;;;9.45;7.43;;;14.20;1.00;;;;;;5075199;28;20427;-58
2022/03/13 10:41:44;;;;;;;12.70;8.00;;;14.40;1.00;;;;;;5073816;28;20436;-58
2022/03/13 10:44:18;;;;;;;10.55;8.73;;;14.60;1.00;;;;;;5070047;28;20438;-57
2022/03/13 10:46:52;;;;;;;11.57;8.77;;;14.80;1.00;;;;;;5059042;28;20524;-58
2022/03/13 10:49:37;;;;;;;10.10;7.88;;;15.00;1.00;;;;;;5073483;28;20506;-58
2022/03/13 10:52:25;;;;;;;9.38;7.68;;;15.10;1.00;;;;;;5066308;28;20442;-59
2022/03/13 10:54:52;;;;;;;10.30;7.70;;;15.20;1.00;;;;;;5052813;28;20916;-58
2022/03/13 10:57:19;;;;;;;11.23;8.52;;;15.30;1.00;;;;;;5052543;28;20439;-58
2022/03/13 11:00:06;;;;;;;13.05;9.05;;;15.40;1.00;;;;;;5069618;28;20430;-58
2022/03/13 11:02:34;;;;;;;10.80;7.30;;;15.20;99.90;;;;;;5066419;28;20508;-58
2022/03/13 11:05:01;;;;;;;11.55;7.95;;;15.10;99.90;;;;;;5052069;28;20502;-58
2022/03/13 11:07:29;;;;;;;14.07;8.70;;;15.40;99.90;;;;;;5066713;28;20481;-58
2022/03/13 11:09:57;;;;;;;12.20;8.60;;;15.50;99.90;;;;;;5072809;28;20463;-58
2022/03/13 11:12:26;;;;;;;13.13;8.90;;;15.70;99.90;;;;;;5062218;28;20425;-59
2022/03/13 11:14:55;;;;;;;11.07;8.57;;;15.90;99.90;;;;;;5056176;28;20421;-58
2022/03/13 11:17:24;;;;;;;11.75;8.45;;;16.10;99.90;;;;;;5054407;28;20436;-58
2022/03/13 11:19:53;;;;;;;11.50;8.30;;;16.20;99.90;;;;;;5054936;28;20825;-58
2022/03/13 11:22:21;;;;;;;10.67;8.60;;;16.30;99.90;;;;;;5073394;28;20434;-58
2022/03/13 11:24:50;;;;;;;12.15;8.50;;;16.30;99.90;;;;;;5072717;28;20523;-58
2022/03/13 11:27:17;;;;;;;13.38;9.40;;;16.40;99.90;;;;;;5074240;28;20784;-59
2022/03/13 11:29:46;;;;;;;12.47;8.40;;;16.50;99.90;;;;;;5068893;28;20495;-59
2022/03/13 11:32:47;;;;;;;13.02;8.40;;;16.40;99.90;;;;;;5073655;28;20451;-58
2022/03/13 11:35:27;;;;;;;10.45;8.20;;;16.50;99.90;;;;;;5072543;28;20423;-59
2022/03/13 11:38:15;;;;;;;12.43;9.35;;;16.60;99.90;;;;;;5073215;28;20869;-59
2022/03/13 11:40:42;;;;;;;12.65;7.90;;;16.60;99.90;;;;;;5053498;28;20589;-59
2022/03/13 11:43:12;;;;;;;10.75;7.80;;;16.80;99.90;;;;;;5072843;28;20766;-59
2022/03/13 11:45:41;;;;;;;12.00;8.77;;;16.80;99.90;;;;;;5071586;28;20526;-59
2022/03/13 11:48:41;;;;;;;10.23;8.10;;;16.80;99.90;;;;;;5063161;28;20895;-58
2022/03/13 11:51:11;;;;;;;14.95;9.30;;;16.60;99.90;;;;;;5053137;28;20432;-58
2022/03/13 11:53:46;;;;;;;19.58;14.10;;;16.70;99.90;;;;;;5053889;28;20435;-58
2022/03/13 11:56:26;;;;;;;13.27;9.98;;;17.10;99.90;;;;;;5052108;28;20540;-58
2022/03/13 11:58:55;;;;;;;11.82;9.27;;;17.60;99.90;;;;;;5052517;28;20455;-58
2022/03/13 12:01:33;;;;;;;11.48;8.80;;;17.40;99.90;;;;;;5054768;28;20547;-60
2022/03/13 12:04:25;;;;;;;13.23;9.35;;;17.50;99.90;;;;;;5074866;28;20428;-60
2022/03/13 12:06:58;;;;;;;13.02;8.73;;;17.60;99.90;;;;;;5055409;28;20440;-60
2022/03/13 12:09:33;;;;;;;12.45;8.90;;;17.40;99.90;;;;;;5060444;28;20742;-60
2022/03/13 12:12:02;;;;;;;12.40;7.80;;;17.30;99.90;;;;;;5071941;28;20518;-58
2022/03/13 12:14:55;;;;;;;14.05;8.82;;;17.30;99.90;;;;;;5069335;28;20799;-60
2022/03/13 12:17:25;;;;;;;13.20;8.73;;;17.20;99.90;;;;;;5052963;28;20429;-60
2022/03/13 12:19:53;;;;;;;13.50;8.40;;;17.30;99.90;;;;;;5050040;28;20569;-59
2022/03/13 12:22:22;;;;;;;9.73;7.10;;;17.60;99.90;;;;;;5052136;28;20449;-58
2022/03/13 12:24:51;;;;;;;10.93;7.33;;;17.60;99.90;;;;;;5064409;28;21030;-56
2022/03/13 12:27:19;;;;;;;10.23;7.30;;;17.40;99.90;;;;;;5073040;28;20503;-60
2022/03/13 12:29:50;;;;;;;9.93;7.13;;;17.60;99.90;;;;;;5073225;28;20823;-58
2022/03/13 12:32:17;;;;;;;10.68;7.15;;;17.70;99.90;;;;;;5055170;28;20423;-59
2022/03/13 12:34:45;;;;;;;11.90;8.40;;;17.70;99.90;;;;;;5073571;28;20769;-60
2022/03/13 12:37:12;;;;;;;11.45;7.32;;;17.70;99.90;;;;;;5071752;28;20430;-58
2022/03/13 12:39:50;;;;;;;10.88;7.78;;;17.70;99.90;;;;;;5072426;28;21059;-58
2022/03/13 12:42:23;;;;;;;9.73;7.10;;;17.70;99.90;;;;;;5062334;28;20820;-59
2022/03/13 12:45:06;;;;;;;10.97;8.60;;;17.60;99.90;;;;;;5052242;28;20425;-58
2022/03/13 12:47:36;;;;;;;10.80;8.15;;;17.60;99.90;;;;;;5053074;28;20444;-58
2022/03/13 12:50:04;;;;;;;11.57;7.85;;;17.70;99.90;;;;;;5052263;28;20461;-58
2022/03/13 12:52:34;;;;;;;12.27;8.13;;;17.80;99.90;;;;;;5054090;28;20465;-59
2022/03/13 12:55:05;;;;;;;12.05;8.30;;;17.90;99.90;;;;;;5070947;28;20432;-59
2022/03/13 12:57:32;;;;;;;13.02;8.75;;;18.00;99.90;;;;;;5072187;28;20885;-58
2022/03/13 12:59:59;;;;;;;10.50;8.45;;;18.20;99.90;;;;;;5062043;28;20952;-59
2022/03/13 13:02:27;;;;;;;11.15;8.02;;;18.10;99.90;;;;;;5050934;28;20429;-60
2022/03/13 13:04:57;;;;;;;11.50;8.50;;;17.80;99.90;;;;;;5049010;28;20507;-61